createdAt,value
2022-11-26T00:03:53.384Z,5.90
2022-11-26T00:09:19.479Z,5.82
2022-11-26T00:14:41.207Z,5.76
2022-11-26T00:20:03.539Z,5.70
2022-11-26T00:25:28.481Z,5.63
2022-11-26T00:30:50.409Z,5.55
2022-11-26T00:36:26.889Z,5.44
2022-11-26T00:41:51.010Z,5.38
2022-11-26T00:47:12.661Z,5.33
2022-11-26T00:52:35.238Z,5.33
2022-11-26T00:57:57.919Z,5.39
2022-11-26T01:03:20.248Z,5.42
2022-11-26T01:08:42.681Z,5.43
2022-11-26T01:14:06.454Z,5.44
2022-11-26T01:19:28.645Z,5.42
2022-11-26T01:24:50.975Z,5.35
2022-11-26T01:30:22.038Z,5.31
2022-11-26T01:35:43.867Z,5.27
2022-11-26T01:41:31.486Z,5.19
2022-11-26T01:46:53.719Z,5.07
2022-11-26T01:52:24.478Z,5.02
2022-11-26T01:57:46.309Z,4.90
2022-11-26T02:03:08.435Z,4.76
2022-11-26T02:08:31.772Z,4.66
2022-11-26T02:13:56.912Z,4.66
2022-11-26T02:19:57.175Z,4.78
2022-11-26T02:25:34.459Z,4.82
2022-11-26T02:31:06.230Z,4.81
2022-11-26T02:36:32.699Z,4.75
2022-11-26T02:42:02.288Z,4.66
2022-11-26T02:47:25.289Z,4.50
2022-11-26T02:52:48.992Z,4.45
2022-11-26T02:58:11.423Z,4.40
2022-11-26T03:03:37.774Z,4.39
2022-11-26T03:08:59.897Z,4.39
2022-11-26T03:14:21.527Z,4.32
2022-11-26T03:19:43.355Z,4.31
2022-11-26T03:25:06.287Z,4.26
2022-11-26T03:30:28.202Z,4.26
2022-11-26T03:35:50.479Z,4.24
2022-11-26T03:41:12.386Z,4.21
2022-11-26T03:46:35.289Z,4.15
2022-11-26T03:51:57.141Z,4.10
2022-11-26T03:57:20.348Z,4.13
2022-11-26T04:02:42.490Z,4.09
2022-11-26T04:08:04.472Z,4.04
2022-11-26T04:13:26.470Z,3.94
2022-11-26T04:18:48.491Z,3.93
2022-11-26T04:24:10.224Z,3.93
2022-11-26T04:29:32.150Z,3.94
2022-11-26T04:34:54.051Z,3.95
2022-11-26T04:40:16.113Z,3.99
2022-11-26T04:45:38.388Z,4.05
2022-11-26T04:51:00.270Z,4.12
2022-11-26T04:56:22.467Z,4.20
2022-11-26T05:01:44.657Z,4.20
2022-11-26T05:07:06.769Z,4.15
2022-11-26T05:12:28.689Z,4.22
2022-11-26T05:17:50.619Z,4.34
2022-11-26T05:23:12.482Z,4.41
2022-11-26T05:28:34.679Z,4.50
2022-11-26T05:33:56.306Z,4.61
2022-11-26T05:39:18.135Z,4.70
2022-11-26T05:44:40.024Z,4.76
2022-11-26T05:50:02.716Z,4.80
2022-11-26T05:55:25.227Z,4.82
2022-11-26T06:00:47.359Z,4.80
2022-11-26T06:06:09.897Z,4.82
2022-11-26T06:11:31.528Z,4.83
2022-11-26T06:16:53.604Z,4.81
2022-11-26T06:22:15.744Z,4.87
2022-11-26T06:27:38.008Z,4.94
2022-11-26T06:32:59.601Z,5.04
2022-11-26T06:38:21.832Z,5.09
2022-11-26T06:43:43.997Z,5.15
2022-11-26T06:49:06.532Z,5.22
2022-11-26T06:54:28.456Z,5.22
2022-11-26T06:59:51.591Z,5.21
2022-11-26T07:05:13.625Z,5.24
2022-11-26T07:10:35.649Z,5.30
2022-11-26T07:16:03.016Z,5.27
2022-11-26T07:21:25.876Z,5.25
2022-11-26T07:26:48.034Z,5.31
2022-11-26T07:32:10.793Z,5.39
2022-11-26T07:37:33.607Z,5.53
2022-11-26T07:42:55.454Z,5.67
2022-11-26T07:48:19.392Z,5.83
2022-11-26T07:53:41.522Z,5.88
2022-11-26T07:59:04.152Z,5.90
2022-11-26T08:04:25.904Z,6.00
2022-11-26T08:09:48.114Z,6.03
2022-11-26T08:15:10.746Z,6.09
2022-11-26T08:20:32.673Z,6.09
2022-11-26T08:26:14.876Z,6.08
2022-11-26T08:31:39.912Z,6.08
2022-11-26T08:37:04.050Z,6.08
2022-11-26T08:42:25.934Z,5.96
2022-11-26T08:47:47.808Z,5.85
2022-11-26T08:53:09.539Z,5.88
2022-11-26T08:58:37.088Z,5.91
2022-11-26T09:04:00.322Z,5.88
2022-11-26T09:09:22.180Z,5.90
2022-11-26T09:14:44.206Z,5.92
2022-11-26T09:20:07.217Z,5.94
2022-11-26T09:25:28.840Z,6.04
2022-11-26T09:30:50.774Z,6.14
2022-11-26T09:36:15.134Z,6.27
2022-11-26T09:42:09.471Z,6.33
2022-11-26T09:47:40.815Z,6.47
2022-11-26T09:53:10.990Z,6.54
2022-11-26T09:58:57.840Z,6.60
2022-11-26T10:04:27.485Z,6.62
2022-11-26T10:10:24.634Z,6.65
2022-11-26T10:15:52.508Z,6.72
2022-11-26T10:21:32.481Z,6.79
2022-11-26T10:27:10.087Z,6.89
2022-11-26T10:32:36.442Z,6.92
2022-11-26T10:37:58.292Z,6.95
2022-11-26T10:43:23.708Z,6.97
2022-11-26T10:48:45.739Z,7.01
2022-11-26T10:54:24.166Z,7.07
2022-11-26T10:59:53.595Z,7.11
2022-11-26T11:05:20.497Z,7.20
2022-11-26T11:10:56.910Z,7.25
2022-11-26T11:16:26.641Z,7.27
2022-11-26T11:21:48.793Z,7.37
2022-11-26T11:27:25.569Z,7.32
2022-11-26T11:32:47.305Z,7.38
2022-11-26T11:38:24.072Z,7.39
2022-11-26T11:43:46.372Z,7.41
2022-11-26T11:49:47.963Z,7.40
2022-11-26T11:55:21.727Z,7.45
2022-11-26T12:00:53.829Z,7.54
2022-11-26T12:06:40.537Z,7.51
2022-11-26T12:12:21.999Z,7.59
2022-11-26T12:17:50.554Z,7.64
2022-11-26T12:23:34.432Z,7.72
2022-11-26T12:29:16.682Z,7.79
2022-11-26T12:34:45.080Z,7.85
2022-11-26T12:40:23.768Z,7.89
2022-11-26T12:45:59.237Z,7.92
2022-11-26T12:51:50.477Z,8.00
2022-11-26T12:57:25.657Z,8.02
2022-11-26T13:02:49.556Z,7.99
2022-11-26T13:08:23.295Z,8.03
2022-11-26T13:13:58.543Z,8.04
2022-11-26T13:19:33.858Z,8.04
2022-11-26T13:25:33.675Z,8.08
2022-11-26T13:31:23.667Z,8.07
2022-11-26T13:37:03.963Z,8.01
2022-11-26T13:42:25.529Z,8.00
2022-11-26T13:48:02.707Z,8.04
2022-11-26T13:53:32.343Z,8.05
2022-11-26T13:58:55.296Z,8.04
2022-11-26T14:04:23.383Z,8.03
2022-11-26T14:09:48.449Z,8.02
2022-11-26T14:15:58.478Z,8.00
2022-11-26T14:21:21.644Z,8.01
2022-11-26T14:26:43.950Z,7.99
2022-11-26T14:32:11.832Z,8.00
2022-11-26T14:37:33.630Z,8.01
2022-11-26T14:43:19.814Z,8.03
2022-11-26T14:48:44.485Z,8.00
2022-11-26T14:54:08.117Z,7.99
2022-11-26T14:59:30.750Z,7.96
2022-11-26T15:05:03.918Z,7.91
2022-11-26T15:10:26.351Z,7.87
2022-11-26T15:16:27.963Z,7.87
2022-11-26T15:21:49.858Z,7.84
2022-11-26T15:27:37.344Z,7.80
2022-11-26T15:33:03.182Z,7.75
2022-11-26T15:38:27.263Z,7.58
2022-11-26T15:43:50.812Z,7.47
2022-11-26T15:49:31.878Z,7.36
2022-11-26T15:55:12.385Z,7.14
2022-11-26T16:00:38.855Z,7.00
2022-11-26T16:06:01.611Z,6.92
2022-11-26T16:11:23.831Z,6.88
2022-11-26T16:16:45.992Z,6.91
2022-11-26T16:22:16.316Z,6.92
2022-11-26T16:27:38.233Z,6.95
2022-11-26T16:33:00.344Z,7.00
2022-11-26T16:38:25.477Z,6.91
2022-11-26T16:43:48.606Z,6.81
2022-11-26T16:49:11.031Z,6.87
2022-11-26T16:54:32.837Z,6.97
2022-11-26T16:59:58.935Z,7.01
2022-11-26T17:05:21.290Z,6.99
2022-11-26T17:10:42.869Z,6.97
2022-11-26T17:16:06.255Z,6.84
2022-11-26T17:21:27.730Z,6.74
2022-11-26T17:26:49.513Z,6.71
2022-11-26T17:32:12.743Z,6.67
2022-11-26T17:37:34.578Z,6.51
2022-11-26T17:42:56.651Z,6.46
2022-11-26T17:48:18.595Z,6.49
2022-11-26T17:53:41.323Z,6.53
2022-11-26T17:59:03.345Z,6.57
2022-11-26T18:04:25.418Z,6.56
2022-11-26T18:09:47.455Z,6.56
2022-11-26T18:15:17.369Z,6.57
2022-11-26T18:20:39.336Z,6.57
2022-11-26T18:26:01.065Z,6.57
2022-11-26T18:31:23.519Z,6.56
2022-11-26T18:36:49.365Z,6.54
2022-11-26T18:47:55.866Z,6.58
2022-11-26T18:53:17.921Z,6.63
2022-11-26T18:58:39.977Z,6.66
2022-11-26T19:04:01.722Z,6.68
2022-11-26T19:09:24.118Z,6.69
2022-11-26T19:14:46.223Z,6.71
2022-11-26T19:20:08.548Z,6.70
2022-11-26T19:25:31.728Z,6.73
2022-11-26T19:31:08.830Z,6.74
2022-11-26T19:36:30.902Z,6.71
2022-11-26T19:41:52.978Z,6.70
2022-11-26T19:47:14.772Z,6.67
2022-11-26T19:52:36.882Z,6.62
2022-11-26T19:57:58.645Z,6.57
2022-11-26T20:03:20.889Z,6.53
2022-11-26T20:08:43.204Z,6.56
2022-11-26T20:14:05.707Z,6.56
2022-11-26T20:19:27.813Z,6.58
2022-11-26T20:24:49.547Z,6.50
2022-11-26T20:30:12.122Z,6.47
2022-11-26T20:35:34.313Z,6.44
2022-11-26T20:40:55.831Z,6.30
2022-11-26T20:46:18.033Z,6.04
2022-11-26T20:51:40.259Z,5.84
2022-11-26T20:57:02.292Z,5.67
2022-11-26T21:02:25.433Z,5.63
2022-11-26T21:07:47.487Z,5.57
2022-11-26T21:13:11.064Z,5.52
2022-11-26T21:18:33.641Z,5.43
2022-11-26T21:23:55.235Z,5.26
2022-11-26T21:29:17.283Z,5.11
2022-11-26T21:34:39.061Z,4.95
2022-11-26T21:40:01.071Z,4.85
2022-11-26T21:45:24.011Z,4.96
2022-11-26T21:50:45.889Z,5.14
2022-11-26T21:56:09.897Z,5.24
2022-11-26T22:01:36.932Z,5.15
2022-11-26T22:07:00.115Z,5.17
2022-11-26T22:12:21.866Z,5.31
2022-11-26T22:17:43.714Z,5.32
2022-11-26T22:23:06.374Z,5.32
2022-11-26T22:28:30.313Z,5.39
2022-11-26T22:34:10.298Z,5.28
2022-11-26T22:39:32.441Z,5.28
2022-11-26T22:44:54.083Z,5.25
2022-11-26T22:50:16.319Z,5.32
2022-11-26T22:55:38.532Z,5.46
2022-11-26T23:01:04.850Z,5.29
2022-11-26T23:06:28.766Z,5.25
2022-11-26T23:11:51.558Z,5.34
2022-11-26T23:17:13.356Z,5.40
2022-11-26T23:22:35.039Z,5.45
2022-11-26T23:27:56.869Z,5.48
2022-11-26T23:33:18.697Z,5.48
2022-11-26T23:38:41.129Z,5.49
2022-11-26T23:44:03.863Z,5.46
2022-11-26T23:49:25.721Z,5.41
2022-11-26T23:54:47.920Z,5.48
